sensor_id;sensor_type;location;lat;lon;timestamp;P1;durP1;ratioP1;P2;durP2;ratioP2
49193;SDS011;35029;50.804;12.866;2023-03-01T00:01:23;28.17;;;17.97;;
49193;SDS011;35029;50.804;12.866;2023-03-01T00:03:51;33.17;;;18.40;;
49193;SDS011;35029;50.804;12.866;2023-03-01T00:06:17;26.73;;;17.37;;
49193;SDS011;35029;50.804;12.866;2023-03-01T00:08:43;27.73;;;16.97;;
49193;SDS011;35029;50.804;12.866;2023-03-01T00:11:13;29.63;;;16.93;;
49193;SDS011;35029;50.804;12.866;2023-03-01T00:16:08;33.23;;;17.13;;
49193;SDS011;35029;50.804;12.866;2023-03-01T00:21:03;28.90;;;16.80;;
49193;SDS011;35029;50.804;12.866;2023-03-01T00:23:29;25.47;;;16.23;;
49193;SDS011;35029;50.804;12.866;2023-03-01T00:25:55;25.50;;;16.17;;
49193;SDS011;35029;50.804;12.866;2023-03-01T00:28:20;25.83;;;16.77;;
49193;SDS011;35029;50.804;12.866;2023-03-01T00:30:46;24.70;;;16.73;;
49193;SDS011;35029;50.804;12.866;2023-03-01T00:33:12;28.13;;;16.57;;
49193;SDS011;35029;50.804;12.866;2023-03-01T00:35:38;26.80;;;16.97;;
49193;SDS011;35029;50.804;12.866;2023-03-01T00:38:03;26.17;;;17.33;;
49193;SDS011;35029;50.804;12.866;2023-03-01T00:40:30;30.50;;;17.43;;
49193;SDS011;35029;50.804;12.866;2023-03-01T00:42:57;26.47;;;16.60;;
49193;SDS011;35029;50.804;12.866;2023-03-01T00:45:22;29.00;;;17.47;;
49193;SDS011;35029;50.804;12.866;2023-03-01T00:47:48;27.33;;;16.77;;
49193;SDS011;35029;50.804;12.866;2023-03-01T00:50:15;28.30;;;19.27;;
49193;SDS011;35029;50.804;12.866;2023-03-01T00:52:41;31.10;;;17.37;;
49193;SDS011;35029;50.804;12.866;2023-03-01T00:55:07;26.57;;;17.63;;
49193;SDS011;35029;50.804;12.866;2023-03-01T00:57:33;29.67;;;17.93;;
49193;SDS011;35029;50.804;12.866;2023-03-01T00:59:59;31.20;;;18.47;;
49193;SDS011;35029;50.804;12.866;2023-03-01T01:02:25;27.77;;;17.33;;
49193;SDS011;35029;50.804;12.866;2023-03-01T01:04:51;27.87;;;17.63;;
49193;SDS011;35029;50.804;12.866;2023-03-01T01:07:16;26.37;;;16.97;;
49193;SDS011;35029;50.804;12.866;2023-03-01T01:09:42;26.67;;;17.30;;
49193;SDS011;35029;50.804;12.866;2023-03-01T01:12:08;28.17;;;17.70;;
49193;SDS011;35029;50.804;12.866;2023-03-01T01:14:34;28.43;;;17.53;;
49193;SDS011;35029;50.804;12.866;2023-03-01T01:17:00;26.77;;;17.10;;
49193;SDS011;35029;50.804;12.866;2023-03-01T01:19:26;30.37;;;17.73;;
49193;SDS011;35029;50.804;12.866;2023-03-01T01:21:51;26.97;;;17.43;;
49193;SDS011;35029;50.804;12.866;2023-03-01T01:24:17;30.03;;;18.43;;
49193;SDS011;35029;50.804;12.866;2023-03-01T01:26:44;28.47;;;18.47;;
49193;SDS011;35029;50.804;12.866;2023-03-01T01:29:11;26.47;;;18.37;;
49193;SDS011;35029;50.804;12.866;2023-03-01T01:31:37;29.27;;;17.60;;
49193;SDS011;35029;50.804;12.866;2023-03-01T01:34:05;29.53;;;18.20;;
49193;SDS011;35029;50.804;12.866;2023-03-01T01:36:33;28.17;;;17.80;;
49193;SDS011;35029;50.804;12.866;2023-03-01T01:38:59;32.73;;;19.43;;
49193;SDS011;35029;50.804;12.866;2023-03-01T01:41:27;27.47;;;18.70;;
49193;SDS011;35029;50.804;12.866;2023-03-01T01:46:39;28.47;;;17.83;;
49193;SDS011;35029;50.804;12.866;2023-03-01T01:49:19;27.23;;;17.77;;
49193;SDS011;35029;50.804;12.866;2023-03-01T01:54:21;33.67;;;19.37;;
49193;SDS011;35029;50.804;12.866;2023-03-01T01:56:52;27.80;;;19.20;;
49193;SDS011;35029;50.804;12.866;2023-03-01T01:59:22;26.75;;;17.83;;
49193;SDS011;35029;50.804;12.866;2023-03-01T02:01:53;28.90;;;19.00;;
49193;SDS011;35029;50.804;12.866;2023-03-01T02:04:20;32.53;;;19.80;;
49193;SDS011;35029;50.804;12.866;2023-03-01T02:07:21;30.60;;;18.77;;
49193;SDS011;35029;50.804;12.866;2023-03-01T02:09:46;30.13;;;19.23;;
49193;SDS011;35029;50.804;12.866;2023-03-01T02:12:14;30.17;;;18.70;;
49193;SDS011;35029;50.804;12.866;2023-03-01T02:14:42;29.60;;;19.67;;
49193;SDS011;35029;50.804;12.866;2023-03-01T02:17:09;26.27;;;18.20;;
49193;SDS011;35029;50.804;12.866;2023-03-01T02:22:47;27.03;;;18.07;;
49193;SDS011;35029;50.804;12.866;2023-03-01T02:28:06;30.47;;;18.83;;
49193;SDS011;35029;50.804;12.866;2023-03-01T02:30:44;30.13;;;19.43;;
49193;SDS011;35029;50.804;12.866;2023-03-01T02:33:31;29.40;;;19.30;;
49193;SDS011;35029;50.804;12.866;2023-03-01T02:36:20;29.63;;;18.90;;
49193;SDS011;35029;50.804;12.866;2023-03-01T02:38:49;28.70;;;18.50;;
49193;SDS011;35029;50.804;12.866;2023-03-01T02:41:19;29.93;;;20.07;;
49193;SDS011;35029;50.804;12.866;2023-03-01T02:43:46;30.27;;;19.70;;
49193;SDS011;35029;50.804;12.866;2023-03-01T02:46:17;29.03;;;17.87;;
49193;SDS011;35029;50.804;12.866;2023-03-01T02:48:46;32.53;;;20.37;;
49193;SDS011;35029;50.804;12.866;2023-03-01T02:53:53;30.67;;;19.47;;
49193;SDS011;35029;50.804;12.866;2023-03-01T02:56:22;32.73;;;20.23;;
49193;SDS011;35029;50.804;12.866;2023-03-01T02:58:47;29.67;;;18.27;;
49193;SDS011;35029;50.804;12.866;2023-03-01T03:01:20;31.00;;;19.63;;
49193;SDS011;35029;50.804;12.866;2023-03-01T03:03:46;29.57;;;19.30;;
49193;SDS011;35029;50.804;12.866;2023-03-01T03:06:12;26.53;;;18.57;;
49193;SDS011;35029;50.804;12.866;2023-03-01T03:08:38;31.43;;;19.70;;
49193;SDS011;35029;50.804;12.866;2023-03-01T03:11:04;27.77;;;18.53;;
49193;SDS011;35029;50.804;12.866;2023-03-01T03:13:30;29.33;;;19.00;;
49193;SDS011;35029;50.804;12.866;2023-03-01T03:15:56;30.20;;;19.77;;
49193;SDS011;35029;50.804;12.866;2023-03-01T03:18:23;29.13;;;19.90;;
49193;SDS011;35029;50.804;12.866;2023-03-01T03:20:52;27.65;;;18.48;;
49193;SDS011;35029;50.804;12.866;2023-03-01T03:23:19;30.90;;;19.53;;
49193;SDS011;35029;50.804;12.866;2023-03-01T03:25:47;30.07;;;19.60;;
49193;SDS011;35029;50.804;12.866;2023-03-01T03:28:16;28.87;;;18.40;;
49193;SDS011;35029;50.804;12.866;2023-03-01T03:30:42;28.20;;;18.00;;
49193;SDS011;35029;50.804;12.866;2023-03-01T03:33:11;26.53;;;17.20;;
49193;SDS011;35029;50.804;12.866;2023-03-01T03:35:44;27.43;;;18.57;;
49193;SDS011;35029;50.804;12.866;2023-03-01T03:38:12;28.90;;;18.63;;
49193;SDS011;35029;50.804;12.866;2023-03-01T03:43:33;29.08;;;18.83;;
49193;SDS011;35029;50.804;12.866;2023-03-01T03:46:00;27.63;;;17.90;;
49193;SDS011;35029;50.804;12.866;2023-03-01T03:48:34;28.20;;;18.83;;
49193;SDS011;35029;50.804;12.866;2023-03-01T03:51:10;30.00;;;18.70;;
49193;SDS011;35029;50.804;12.866;2023-03-01T03:53:38;33.13;;;19.90;;
49193;SDS011;35029;50.804;12.866;2023-03-01T03:56:04;28.00;;;17.50;;
49193;SDS011;35029;50.804;12.866;2023-03-01T03:58:30;26.57;;;18.30;;
49193;SDS011;35029;50.804;12.866;2023-03-01T04:00:56;35.17;;;19.87;;
49193;SDS011;35029;50.804;12.866;2023-03-01T04:03:22;34.73;;;18.30;;
49193;SDS011;35029;50.804;12.866;2023-03-01T04:05:49;29.27;;;18.80;;
49193;SDS011;35029;50.804;12.866;2023-03-01T04:08:16;28.07;;;18.77;;
49193;SDS011;35029;50.804;12.866;2023-03-01T04:10:46;31.27;;;20.33;;
49193;SDS011;35029;50.804;12.866;2023-03-01T04:13:14;28.57;;;19.67;;
49193;SDS011;35029;50.804;12.866;2023-03-01T04:15:44;29.38;;;17.92;;
49193;SDS011;35029;50.804;12.866;2023-03-01T04:18:14;28.07;;;17.40;;
49193;SDS011;35029;50.804;12.866;2023-03-01T04:20:41;32.07;;;19.17;;
49193;SDS011;35029;50.804;12.866;2023-03-01T04:23:10;27.87;;;18.93;;
49193;SDS011;35029;50.804;12.866;2023-03-01T04:28:10;30.07;;;18.50;;
49193;SDS011;35029;50.804;12.866;2023-03-01T04:30:37;27.20;;;17.87;;
49193;SDS011;35029;50.804;12.866;2023-03-01T04:33:04;25.73;;;16.53;;
49193;SDS011;35029;50.804;12.866;2023-03-01T04:35:31;25.97;;;17.50;;
49193;SDS011;35029;50.804;12.866;2023-03-01T04:37:57;26.63;;;17.20;;
49193;SDS011;35029;50.804;12.866;2023-03-01T04:40:23;31.13;;;18.13;;
49193;SDS011;35029;50.804;12.866;2023-03-01T04:42:49;28.60;;;17.00;;
49193;SDS011;35029;50.804;12.866;2023-03-01T04:45:14;28.60;;;17.70;;
49193;SDS011;35029;50.804;12.866;2023-03-01T04:47:42;28.90;;;17.60;;
49193;SDS011;35029;50.804;12.866;2023-03-01T04:50:14;27.67;;;18.30;;
49193;SDS011;35029;50.804;12.866;2023-03-01T04:52:42;27.33;;;18.73;;
49193;SDS011;35029;50.804;12.866;2023-03-01T04:55:11;28.10;;;17.80;;
49193;SDS011;35029;50.804;12.866;2023-03-01T04:57:36;30.53;;;17.67;;
49193;SDS011;35029;50.804;12.866;2023-03-01T05:00:03;30.70;;;18.10;;
49193;SDS011;35029;50.804;12.866;2023-03-01T05:02:56;27.33;;;17.73;;
49193;SDS011;35029;50.804;12.866;2023-03-01T05:05:31;29.23;;;18.30;;
49193;SDS011;35029;50.804;12.866;2023-03-01T05:08:01;28.23;;;18.10;;
49193;SDS011;35029;50.804;12.866;2023-03-01T05:10:31;30.10;;;18.30;;
49193;SDS011;35029;50.804;12.866;2023-03-01T05:12:58;31.00;;;19.03;;
49193;SDS011;35029;50.804;12.866;2023-03-01T05:15:25;28.33;;;17.80;;
49193;SDS011;35029;50.804;12.866;2023-03-01T05:17:52;29.87;;;18.80;;
49193;SDS011;35029;50.804;12.866;2023-03-01T05:20:20;30.37;;;17.40;;
49193;SDS011;35029;50.804;12.866;2023-03-01T05:22:49;27.37;;;18.90;;
49193;SDS011;35029;50.804;12.866;2023-03-01T05:25:16;25.80;;;18.03;;
49193;SDS011;35029;50.804;12.866;2023-03-01T05:27:43;25.53;;;16.90;;
49193;SDS011;35029;50.804;12.866;2023-03-01T05:30:10;31.17;;;17.77;;
49193;SDS011;35029;50.804;12.866;2023-03-01T05:32:48;29.17;;;17.83;;
49193;SDS011;35029;50.804;12.866;2023-03-01T05:35:20;29.70;;;17.87;;
49193;SDS011;35029;50.804;12.866;2023-03-01T05:37:47;29.93;;;16.37;;
49193;SDS011;35029;50.804;12.866;2023-03-01T05:40:23;24.90;;;16.27;;
49193;SDS011;35029;50.804;12.866;2023-03-01T05:42:52;24.87;;;16.70;;
49193;SDS011;35029;50.804;12.866;2023-03-01T05:45:20;27.63;;;17.97;;
49193;SDS011;35029;50.804;12.866;2023-03-01T05:47:47;28.03;;;17.17;;
49193;SDS011;35029;50.804;12.866;2023-03-01T05:50:17;28.37;;;17.47;;
49193;SDS011;35029;50.804;12.866;2023-03-01T05:52:49;30.07;;;18.17;;
49193;SDS011;35029;50.804;12.866;2023-03-01T05:55:20;24.73;;;16.70;;
49193;SDS011;35029;50.804;12.866;2023-03-01T05:57:46;27.33;;;17.43;;
49193;SDS011;35029;50.804;12.866;2023-03-01T06:00:12;26.10;;;17.27;;
49193;SDS011;35029;50.804;12.866;2023-03-01T06:02:40;27.67;;;18.13;;
49193;SDS011;35029;50.804;12.866;2023-03-01T06:05:07;28.50;;;17.07;;
49193;SDS011;35029;50.804;12.866;2023-03-01T06:07:34;27.30;;;17.70;;
49193;SDS011;35029;50.804;12.866;2023-03-01T06:10:00;26.90;;;18.57;;
49193;SDS011;35029;50.804;12.866;2023-03-01T06:12:29;27.67;;;18.20;;
49193;SDS011;35029;50.804;12.866;2023-03-01T06:14:59;29.77;;;18.43;;
49193;SDS011;35029;50.804;12.866;2023-03-01T06:17:28;30.63;;;17.40;;
49193;SDS011;35029;50.804;12.866;2023-03-01T06:20:08;24.67;;;17.13;;
49193;SDS011;35029;50.804;12.866;2023-03-01T06:22:36;27.03;;;16.67;;
49193;SDS011;35029;50.804;12.866;2023-03-01T06:25:01;30.03;;;18.40;;
49193;SDS011;35029;50.804;12.866;2023-03-01T06:27:28;27.87;;;18.83;;
49193;SDS011;35029;50.804;12.866;2023-03-01T06:29:53;30.63;;;19.50;;
49193;SDS011;35029;50.804;12.866;2023-03-01T06:32:19;30.00;;;19.57;;
49193;SDS011;35029;50.804;12.866;2023-03-01T06:34:45;33.00;;;18.63;;
49193;SDS011;35029;50.804;12.866;2023-03-01T06:37:10;28.00;;;17.90;;
49193;SDS011;35029;50.804;12.866;2023-03-01T06:39:36;28.40;;;18.40;;
49193;SDS011;35029;50.804;12.866;2023-03-01T06:42:02;29.00;;;18.73;;
49193;SDS011;35029;50.804;12.866;2023-03-01T06:44:28;32.23;;;19.77;;
49193;SDS011;35029;50.804;12.866;2023-03-01T06:46:53;29.57;;;19.33;;
49193;SDS011;35029;50.804;12.866;2023-03-01T06:49:19;29.63;;;17.97;;
49193;SDS011;35029;50.804;12.866;2023-03-01T06:51:46;32.30;;;18.33;;
49193;SDS011;35029;50.804;12.866;2023-03-01T06:54:12;33.53;;;20.13;;
49193;SDS011;35029;50.804;12.866;2023-03-01T06:56:38;28.33;;;19.37;;
49193;SDS011;35029;50.804;12.866;2023-03-01T06:59:04;30.77;;;19.47;;
49193;SDS011;35029;50.804;12.866;2023-03-01T07:09:04;32.70;;;20.60;;
49193;SDS011;35029;50.804;12.866;2023-03-01T07:11:29;32.07;;;19.93;;
49193;SDS011;35029;50.804;12.866;2023-03-01T07:13:58;31.10;;;20.97;;
49193;SDS011;35029;50.804;12.866;2023-03-01T07:16:25;30.53;;;19.27;;
49193;SDS011;35029;50.804;12.866;2023-03-01T07:18:50;32.00;;;20.13;;
49193;SDS011;35029;50.804;12.866;2023-03-01T07:21:16;33.47;;;20.63;;
49193;SDS011;35029;50.804;12.866;2023-03-01T07:23:42;31.80;;;20.70;;
49193;SDS011;35029;50.804;12.866;2023-03-01T07:26:07;32.20;;;19.47;;
49193;SDS011;35029;50.804;12.866;2023-03-01T07:28:33;35.20;;;20.20;;
49193;SDS011;35029;50.804;12.866;2023-03-01T07:31:03;34.80;;;20.67;;
49193;SDS011;35029;50.804;12.866;2023-03-01T07:33:31;30.50;;;21.07;;
49193;SDS011;35029;50.804;12.866;2023-03-01T07:36:01;37.03;;;21.43;;
49193;SDS011;35029;50.804;12.866;2023-03-01T07:38:29;34.40;;;20.40;;
49193;SDS011;35029;50.804;12.866;2023-03-01T07:40:58;32.70;;;20.97;;
49193;SDS011;35029;50.804;12.866;2023-03-01T07:43:26;33.95;;;21.08;;
49193;SDS011;35029;50.804;12.866;2023-03-01T07:45:54;30.37;;;19.90;;
49193;SDS011;35029;50.804;12.866;2023-03-01T07:48:20;36.70;;;21.87;;
49193;SDS011;35029;50.804;12.866;2023-03-01T07:50:45;32.73;;;21.37;;
49193;SDS011;35029;50.804;12.866;2023-03-01T07:53:11;34.80;;;20.60;;
49193;SDS011;35029;50.804;12.866;2023-03-01T07:55:36;35.27;;;21.80;;
49193;SDS011;35029;50.804;12.866;2023-03-01T07:58:02;30.07;;;20.90;;
49193;SDS011;35029;50.804;12.866;2023-03-01T08:00:28;30.27;;;19.37;;
49193;SDS011;35029;50.804;12.866;2023-03-01T08:02:54;30.97;;;19.63;;
49193;SDS011;35029;50.804;12.866;2023-03-01T08:05:19;32.37;;;20.10;;
49193;SDS011;35029;50.804;12.866;2023-03-01T08:07:47;29.33;;;19.80;;
49193;SDS011;35029;50.804;12.866;2023-03-01T08:10:13;28.83;;;19.47;;
49193;SDS011;35029;50.804;12.866;2023-03-01T08:12:39;31.33;;;20.00;;
49193;SDS011;35029;50.804;12.866;2023-03-01T08:15:06;29.43;;;19.57;;
49193;SDS011;35029;50.804;12.866;2023-03-01T08:17:32;29.42;;;18.70;;
49193;SDS011;35029;50.804;12.866;2023-03-01T08:19:57;31.47;;;19.93;;
49193;SDS011;35029;50.804;12.866;2023-03-01T08:22:23;31.52;;;20.85;;
49193;SDS011;35029;50.804;12.866;2023-03-01T08:24:49;31.17;;;21.20;;
49193;SDS011;35029;50.804;12.866;2023-03-01T08:27:15;31.50;;;19.77;;
49193;SDS011;35029;50.804;12.866;2023-03-01T08:29:41;31.90;;;21.25;;
49193;SDS011;35029;50.804;12.866;2023-03-01T08:32:06;29.98;;;19.70;;
49193;SDS011;35029;50.804;12.866;2023-03-01T08:34:32;34.38;;;21.38;;
49193;SDS011;35029;50.804;12.866;2023-03-01T08:37:00;33.93;;;20.73;;
49193;SDS011;35029;50.804;12.866;2023-03-01T08:39:26;32.03;;;20.17;;
49193;SDS011;35029;50.804;12.866;2023-03-01T08:41:52;31.38;;;19.58;;
49193;SDS011;35029;50.804;12.866;2023-03-01T08:44:18;26.05;;;18.92;;
49193;SDS011;35029;50.804;12.866;2023-03-01T08:46:44;33.70;;;19.02;;
49193;SDS011;35029;50.804;12.866;2023-03-01T08:49:11;27.80;;;17.17;;
49193;SDS011;35029;50.804;12.866;2023-03-01T08:51:39;27.40;;;19.40;;
49193;SDS011;35029;50.804;12.866;2023-03-01T08:54:11;30.77;;;18.88;;
49193;SDS011;35029;50.804;12.866;2023-03-01T08:56:40;26.85;;;19.20;;
49193;SDS011;35029;50.804;12.866;2023-03-01T08:59:06;27.95;;;18.73;;
49193;SDS011;35029;50.804;12.866;2023-03-01T09:01:38;30.33;;;19.10;;
49193;SDS011;35029;50.804;12.866;2023-03-01T09:04:05;24.38;;;17.45;;
49193;SDS011;35029;50.804;12.866;2023-03-01T09:06:32;28.08;;;18.85;;
49193;SDS011;35029;50.804;12.866;2023-03-01T09:08:58;30.10;;;17.67;;
49193;SDS011;35029;50.804;12.866;2023-03-01T09:11:23;29.50;;;17.55;;
49193;SDS011;35029;50.804;12.866;2023-03-01T09:13:51;30.88;;;18.65;;
49193;SDS011;35029;50.804;12.866;2023-03-01T09:16:17;25.42;;;17.75;;
49193;SDS011;35029;50.804;12.866;2023-03-01T09:18:44;24.42;;;16.83;;
49193;SDS011;35029;50.804;12.866;2023-03-01T09:21:16;25.30;;;17.55;;
49193;SDS011;35029;50.804;12.866;2023-03-01T09:23:43;21.65;;;16.08;;
49193;SDS011;35029;50.804;12.866;2023-03-01T09:26:12;27.90;;;18.63;;
49193;SDS011;35029;50.804;12.866;2023-03-01T09:28:44;25.02;;;17.02;;
49193;SDS011;35029;50.804;12.866;2023-03-01T09:31:11;22.40;;;16.33;;
49193;SDS011;35029;50.804;12.866;2023-03-01T09:33:40;24.02;;;16.67;;
49193;SDS011;35029;50.804;12.866;2023-03-01T09:36:13;27.83;;;18.17;;
49193;SDS011;35029;50.804;12.866;2023-03-01T09:38:44;26.52;;;17.73;;
49193;SDS011;35029;50.804;12.866;2023-03-01T09:41:11;27.15;;;18.15;;
49193;SDS011;35029;50.804;12.866;2023-03-01T09:43:50;28.88;;;16.90;;
49193;SDS011;35029;50.804;12.866;2023-03-01T09:46:30;24.35;;;16.58;;
49193;SDS011;35029;50.804;12.866;2023-03-01T09:49:05;25.95;;;17.40;;
49193;SDS011;35029;50.804;12.866;2023-03-01T09:51:39;26.58;;;18.83;;
49193;SDS011;35029;50.804;12.866;2023-03-01T09:54:12;25.13;;;17.83;;
49193;SDS011;35029;50.804;12.866;2023-03-01T09:59:29;24.98;;;17.35;;
49193;SDS011;35029;50.804;12.866;2023-03-01T10:05:11;30.92;;;18.17;;
49193;SDS011;35029;50.804;12.866;2023-03-01T10:10:53;24.23;;;17.00;;
49193;SDS011;35029;50.804;12.866;2023-03-01T10:13:34;25.35;;;16.90;;
49193;SDS011;35029;50.804;12.866;2023-03-01T10:16:14;24.33;;;17.00;;
49193;SDS011;35029;50.804;12.866;2023-03-01T10:18:52;25.52;;;17.50;;
49193;SDS011;35029;50.804;12.866;2023-03-01T10:21:25;24.60;;;17.27;;
49193;SDS011;35029;50.804;12.866;2023-03-01T10:23:52;25.90;;;18.02;;
49193;SDS011;35029;50.804;12.866;2023-03-01T10:29:31;24.33;;;17.60;;
49193;SDS011;35029;50.804;12.866;2023-03-01T10:32:05;27.43;;;18.90;;
49193;SDS011;35029;50.804;12.866;2023-03-01T10:34:33;27.90;;;17.98;;
49193;SDS011;35029;50.804;12.866;2023-03-01T10:37:08;25.65;;;17.42;;
49193;SDS011;35029;50.804;12.866;2023-03-01T10:39:34;28.60;;;18.50;;
49193;SDS011;35029;50.804;12.866;2023-03-01T10:42:02;24.73;;;18.77;;
49193;SDS011;35029;50.804;12.866;2023-03-01T10:44:37;25.80;;;17.98;;
49193;SDS011;35029;50.804;12.866;2023-03-01T10:49:53;25.55;;;18.08;;
49193;SDS011;35029;50.804;12.866;2023-03-01T10:52:42;26.80;;;18.25;;
49193;SDS011;35029;50.804;12.866;2023-03-01T10:55:29;25.80;;;17.73;;
49193;SDS011;35029;50.804;12.866;2023-03-01T10:58:07;26.63;;;18.65;;
49193;SDS011;35029;50.804;12.866;2023-03-01T11:03:26;24.45;;;17.17;;
49193;SDS011;35029;50.804;12.866;2023-03-01T11:16:38;26.95;;;17.48;;
49193;SDS011;35029;50.804;12.866;2023-03-01T11:21:35;27.00;;;17.02;;
49193;SDS011;35029;50.804;12.866;2023-03-01T11:24:04;23.45;;;17.25;;
49193;SDS011;35029;50.804;12.866;2023-03-01T11:26:36;21.75;;;16.88;;
49193;SDS011;35029;50.804;12.866;2023-03-01T11:29:07;33.42;;;18.83;;
49193;SDS011;35029;50.804;12.866;2023-03-01T11:31:40;25.10;;;17.85;;
49193;SDS011;35029;50.804;12.866;2023-03-01T11:34:14;26.35;;;19.42;;
49193;SDS011;35029;50.804;12.866;2023-03-01T11:36:49;31.10;;;20.58;;
49193;SDS011;35029;50.804;12.866;2023-03-01T11:42:19;26.77;;;20.58;;
49193;SDS011;35029;50.804;12.866;2023-03-01T11:44:55;28.55;;;19.90;;
49193;SDS011;35029;50.804;12.866;2023-03-01T11:52:59;30.90;;;21.83;;
49193;SDS011;35029;50.804;12.866;2023-03-01T11:58:27;28.88;;;20.25;;
49193;SDS011;35029;50.804;12.866;2023-03-01T12:22:52;27.55;;;19.98;;
49193;SDS011;35029;50.804;12.866;2023-03-01T12:25:44;30.65;;;20.38;;
49193;SDS011;35029;50.804;12.866;2023-03-01T12:38:40;32.47;;;21.58;;
49193;SDS011;35029;50.804;12.866;2023-03-01T12:41:26;34.60;;;22.83;;
49193;SDS011;35029;50.804;12.866;2023-03-01T12:47:07;27.73;;;19.38;;
49193;SDS011;35029;50.804;12.866;2023-03-01T12:49:54;28.88;;;21.48;;
49193;SDS011;35029;50.804;12.866;2023-03-01T12:54:51;33.05;;;23.88;;
49193;SDS011;35029;50.804;12.866;2023-03-01T12:57:28;30.45;;;23.25;;
49193;SDS011;35029;50.804;12.866;2023-03-01T13:00:32;34.30;;;22.20;;
49193;SDS011;35029;50.804;12.866;2023-03-01T13:05:47;35.72;;;25.02;;
49193;SDS011;35029;50.804;12.866;2023-03-01T13:08:38;33.42;;;23.17;;
49193;SDS011;35029;50.804;12.866;2023-03-01T13:11:19;28.83;;;21.77;;
49193;SDS011;35029;50.804;12.866;2023-03-01T13:13:47;29.70;;;21.42;;
49193;SDS011;35029;50.804;12.866;2023-03-01T13:19:08;32.95;;;21.98;;
49193;SDS011;35029;50.804;12.866;2023-03-01T13:21:39;29.13;;;20.70;;
49193;SDS011;35029;50.804;12.866;2023-03-01T13:24:23;31.40;;;20.00;;
49193;SDS011;35029;50.804;12.866;2023-03-01T13:29:46;33.28;;;23.23;;
49193;SDS011;35029;50.804;12.866;2023-03-01T13:32:20;31.05;;;23.00;;
49193;SDS011;35029;50.804;12.866;2023-03-01T13:34:54;30.80;;;23.40;;
49193;SDS011;35029;50.804;12.866;2023-03-01T13:37:40;33.08;;;22.27;;
49193;SDS011;35029;50.804;12.866;2023-03-01T13:42:45;32.92;;;23.13;;
49193;SDS011;35029;50.804;12.866;2023-03-01T13:48:32;37.58;;;24.33;;
49193;SDS011;35029;50.804;12.866;2023-03-01T13:50:49;31.55;;;23.55;;
49193;SDS011;35029;50.804;12.866;2023-03-01T13:53:18;33.60;;;23.58;;
49193;SDS011;35029;50.804;12.866;2023-03-01T13:55:48;32.38;;;22.50;;
49193;SDS011;35029;50.804;12.866;2023-03-01T13:58:24;37.67;;;23.02;;
49193;SDS011;35029;50.804;12.866;2023-03-01T14:00:59;32.17;;;23.05;;
49193;SDS011;35029;50.804;12.866;2023-03-01T14:03:33;30.48;;;22.10;;
49193;SDS011;35029;50.804;12.866;2023-03-01T14:06:06;30.67;;;21.85;;
49193;SDS011;35029;50.804;12.866;2023-03-01T14:08:35;31.77;;;21.95;;
49193;SDS011;35029;50.804;12.866;2023-03-01T14:11:13;29.85;;;22.52;;
49193;SDS011;35029;50.804;12.866;2023-03-01T14:19:21;34.35;;;22.33;;
49193;SDS011;35029;50.804;12.866;2023-03-01T14:22:02;32.13;;;22.15;;
49193;SDS011;35029;50.804;12.866;2023-03-01T14:24:44;30.85;;;21.70;;
49193;SDS011;35029;50.804;12.866;2023-03-01T14:27:14;28.92;;;20.38;;
49193;SDS011;35029;50.804;12.866;2023-03-01T14:29:42;30.17;;;20.65;;
49193;SDS011;35029;50.804;12.866;2023-03-01T14:32:11;30.02;;;21.77;;
49193;SDS011;35029;50.804;12.866;2023-03-01T14:34:45;29.95;;;21.27;;
49193;SDS011;35029;50.804;12.866;2023-03-01T14:37:30;29.90;;;20.40;;
49193;SDS011;35029;50.804;12.866;2023-03-01T14:39:58;28.38;;;20.88;;
49193;SDS011;35029;50.804;12.866;2023-03-01T14:42:27;29.45;;;21.92;;
49193;SDS011;35029;50.804;12.866;2023-03-01T14:44:56;29.42;;;20.85;;
49193;SDS011;35029;50.804;12.866;2023-03-01T14:47:33;28.42;;;19.90;;
49193;SDS011;35029;50.804;12.866;2023-03-01T14:50:24;30.83;;;20.83;;
49193;SDS011;35029;50.804;12.866;2023-03-01T14:53:02;32.05;;;21.17;;
49193;SDS011;35029;50.804;12.866;2023-03-01T14:58:03;29.20;;;20.38;;
49193;SDS011;35029;50.804;12.866;2023-03-01T15:00:31;28.80;;;20.13;;
49193;SDS011;35029;50.804;12.866;2023-03-01T15:03:00;29.38;;;20.63;;
49193;SDS011;35029;50.804;12.866;2023-03-01T15:05:38;27.63;;;20.52;;
49193;SDS011;35029;50.804;12.866;2023-03-01T15:08:05;26.63;;;20.52;;
49193;SDS011;35029;50.804;12.866;2023-03-01T15:10:33;28.30;;;19.33;;
49193;SDS011;35029;50.804;12.866;2023-03-01T15:13:19;30.02;;;20.83;;
49193;SDS011;35029;50.804;12.866;2023-03-01T15:15:47;29.67;;;19.48;;
49193;SDS011;35029;50.804;12.866;2023-03-01T15:18:20;27.88;;;19.60;;
49193;SDS011;35029;50.804;12.866;2023-03-01T15:20:49;24.45;;;19.00;;
49193;SDS011;35029;50.804;12.866;2023-03-01T15:23:28;25.90;;;19.02;;
49193;SDS011;35029;50.804;12.866;2023-03-01T15:25:58;32.65;;;20.05;;
49193;SDS011;35029;50.804;12.866;2023-03-01T15:28:25;22.65;;;17.80;;
49193;SDS011;35029;50.804;12.866;2023-03-01T15:31:01;22.60;;;17.90;;
49193;SDS011;35029;50.804;12.866;2023-03-01T15:33:34;23.95;;;17.48;;
49193;SDS011;35029;50.804;12.866;2023-03-01T15:36:01;27.13;;;19.33;;
49193;SDS011;35029;50.804;12.866;2023-03-01T15:41:04;25.48;;;18.25;;
49193;SDS011;35029;50.804;12.866;2023-03-01T15:43:46;27.83;;;20.73;;
49193;SDS011;35029;50.804;12.866;2023-03-01T15:46:20;24.65;;;18.42;;
49193;SDS011;35029;50.804;12.866;2023-03-01T15:48:51;23.65;;;17.20;;
49193;SDS011;35029;50.804;12.866;2023-03-01T15:51:28;24.40;;;17.05;;
49193;SDS011;35029;50.804;12.866;2023-03-01T15:53:55;22.52;;;17.33;;
49193;SDS011;35029;50.804;12.866;2023-03-01T15:56:24;24.45;;;16.40;;
49193;SDS011;35029;50.804;12.866;2023-03-01T15:58:50;23.33;;;16.63;;
49193;SDS011;35029;50.804;12.866;2023-03-01T16:01:15;27.00;;;17.20;;
49193;SDS011;35029;50.804;12.866;2023-03-01T16:03:43;20.05;;;14.55;;
49193;SDS011;35029;50.804;12.866;2023-03-01T16:06:10;20.52;;;15.55;;
49193;SDS011;35029;50.804;12.866;2023-03-01T16:08:37;23.13;;;16.02;;
49193;SDS011;35029;50.804;12.866;2023-03-01T16:11:04;25.73;;;16.33;;
49193;SDS011;35029;50.804;12.866;2023-03-01T16:13:34;23.75;;;16.27;;
49193;SDS011;35029;50.804;12.866;2023-03-01T16:16:00;19.67;;;15.30;;
49193;SDS011;35029;50.804;12.866;2023-03-01T16:18:25;22.90;;;16.20;;
49193;SDS011;35029;50.804;12.866;2023-03-01T16:20:51;21.27;;;15.68;;
49193;SDS011;35029;50.804;12.866;2023-03-01T16:23:19;22.73;;;16.42;;
49193;SDS011;35029;50.804;12.866;2023-03-01T16:25:44;24.08;;;16.77;;
49193;SDS011;35029;50.804;12.866;2023-03-01T16:28:10;24.60;;;16.05;;
49193;SDS011;35029;50.804;12.866;2023-03-01T16:30:36;25.40;;;16.58;;
49193;SDS011;35029;50.804;12.866;2023-03-01T16:33:04;26.80;;;16.60;;
49193;SDS011;35029;50.804;12.866;2023-03-01T16:35:33;23.90;;;15.95;;
49193;SDS011;35029;50.804;12.866;2023-03-01T16:38:06;24.20;;;15.93;;
49193;SDS011;35029;50.804;12.866;2023-03-01T16:40:31;25.90;;;16.20;;